sensor_id;sensor_type;location;lat;lon;timestamp;P1;durP1;ratioP1;P2;durP2;ratioP2
61471;SDS011;47337;54.068;12.114;2024-03-08T00:00:54;20.10;;;9.35;;
61471;SDS011;47337;54.068;12.114;2024-03-08T00:03:19;21.25;;;9.88;;
61471;SDS011;47337;54.068;12.114;2024-03-08T00:05:44;26.48;;;8.52;;
61471;SDS011;47337;54.068;12.114;2024-03-08T00:08:12;20.02;;;8.25;;
61471;SDS011;47337;54.068;12.114;2024-03-08T00:10:40;19.52;;;7.72;;
61471;SDS011;47337;54.068;12.114;2024-03-08T00:13:05;19.75;;;8.40;;
61471;SDS011;47337;54.068;12.114;2024-03-08T00:15:31;20.23;;;9.25;;
61471;SDS011;47337;54.068;12.114;2024-03-08T00:17:57;18.73;;;8.60;;
61471;SDS011;47337;54.068;12.114;2024-03-08T00:20:22;21.75;;;9.35;;
61471;SDS011;47337;54.068;12.114;2024-03-08T00:22:50;19.83;;;8.15;;
61471;SDS011;47337;54.068;12.114;2024-03-08T00:25:16;23.90;;;9.50;;
61471;SDS011;47337;54.068;12.114;2024-03-08T00:27:41;16.73;;;8.10;;
61471;SDS011;47337;54.068;12.114;2024-03-08T00:30:07;17.70;;;8.23;;
61471;SDS011;47337;54.068;12.114;2024-03-08T00:32:33;19.60;;;8.23;;
61471;SDS011;47337;54.068;12.114;2024-03-08T00:34:58;20.48;;;8.80;;
61471;SDS011;47337;54.068;12.114;2024-03-08T00:37:25;20.40;;;9.10;;
61471;SDS011;47337;54.068;12.114;2024-03-08T00:39:51;20.40;;;8.00;;
61471;SDS011;47337;54.068;12.114;2024-03-08T00:42:20;15.80;;;7.95;;
61471;SDS011;47337;54.068;12.114;2024-03-08T00:44:45;18.27;;;8.52;;
61471;SDS011;47337;54.068;12.114;2024-03-08T00:47:13;21.33;;;7.85;;
61471;SDS011;47337;54.068;12.114;2024-03-08T00:49:38;20.13;;;8.23;;
61471;SDS011;47337;54.068;12.114;2024-03-08T00:52:06;18.65;;;7.82;;
61471;SDS011;47337;54.068;12.114;2024-03-08T00:54:32;20.58;;;8.32;;
61471;SDS011;47337;54.068;12.114;2024-03-08T00:56:57;18.98;;;8.18;;
61471;SDS011;47337;54.068;12.114;2024-03-08T00:59:22;17.35;;;8.82;;
61471;SDS011;47337;54.068;12.114;2024-03-08T01:01:48;17.00;;;7.97;;
61471;SDS011;47337;54.068;12.114;2024-03-08T01:04:13;19.60;;;8.50;;
61471;SDS011;47337;54.068;12.114;2024-03-08T01:06:38;18.65;;;8.82;;
61471;SDS011;47337;54.068;12.114;2024-03-08T01:09:06;23.30;;;9.43;;
61471;SDS011;47337;54.068;12.114;2024-03-08T01:11:32;22.17;;;8.43;;
61471;SDS011;47337;54.068;12.114;2024-03-08T01:13:57;19.30;;;8.60;;
61471;SDS011;47337;54.068;12.114;2024-03-08T01:16:22;22.63;;;8.75;;
61471;SDS011;47337;54.068;12.114;2024-03-08T01:18:48;18.15;;;8.32;;
61471;SDS011;47337;54.068;12.114;2024-03-08T01:21:13;22.38;;;9.18;;
61471;SDS011;47337;54.068;12.114;2024-03-08T01:23:38;24.70;;;8.98;;
61471;SDS011;47337;54.068;12.114;2024-03-08T01:26:04;21.85;;;9.77;;
61471;SDS011;47337;54.068;12.114;2024-03-08T01:28:29;20.58;;;8.20;;
61471;SDS011;47337;54.068;12.114;2024-03-08T01:30:55;17.30;;;8.60;;
61471;SDS011;47337;54.068;12.114;2024-03-08T01:33:21;19.23;;;8.20;;
61471;SDS011;47337;54.068;12.114;2024-03-08T01:35:47;21.95;;;8.70;;
61471;SDS011;47337;54.068;12.114;2024-03-08T01:38:13;21.27;;;8.70;;
61471;SDS011;47337;54.068;12.114;2024-03-08T01:40:38;20.10;;;7.95;;
61471;SDS011;47337;54.068;12.114;2024-03-08T01:43:21;20.50;;;9.88;;
61471;SDS011;47337;54.068;12.114;2024-03-08T01:48:14;17.38;;;8.65;;
61471;SDS011;47337;54.068;12.114;2024-03-08T01:50:40;22.30;;;9.02;;
61471;SDS011;47337;54.068;12.114;2024-03-08T01:53:06;22.83;;;8.25;;
61471;SDS011;47337;54.068;12.114;2024-03-08T01:55:31;18.70;;;8.05;;
61471;SDS011;47337;54.068;12.114;2024-03-08T01:57:57;23.10;;;9.20;;
61471;SDS011;47337;54.068;12.114;2024-03-08T02:00:22;21.23;;;8.57;;
61471;SDS011;47337;54.068;12.114;2024-03-08T02:02:48;19.10;;;8.30;;
61471;SDS011;47337;54.068;12.114;2024-03-08T02:05:14;18.05;;;8.27;;
61471;SDS011;47337;54.068;12.114;2024-03-08T02:07:41;20.77;;;8.13;;
61471;SDS011;47337;54.068;12.114;2024-03-08T02:10:11;18.45;;;8.15;;
61471;SDS011;47337;54.068;12.114;2024-03-08T02:12:37;20.98;;;8.75;;
61471;SDS011;47337;54.068;12.114;2024-03-08T02:15:03;19.50;;;7.85;;
61471;SDS011;47337;54.068;12.114;2024-03-08T02:17:31;20.38;;;8.65;;
61471;SDS011;47337;54.068;12.114;2024-03-08T02:19:56;18.15;;;8.00;;
61471;SDS011;47337;54.068;12.114;2024-03-08T02:22:21;17.58;;;8.10;;
61471;SDS011;47337;54.068;12.114;2024-03-08T02:24:47;16.60;;;8.43;;
61471;SDS011;47337;54.068;12.114;2024-03-08T02:27:12;19.95;;;8.40;;
61471;SDS011;47337;54.068;12.114;2024-03-08T02:29:37;20.08;;;9.18;;
61471;SDS011;47337;54.068;12.114;2024-03-08T02:32:06;18.48;;;7.97;;
61471;SDS011;47337;54.068;12.114;2024-03-08T02:34:31;23.38;;;9.18;;
61471;SDS011;47337;54.068;12.114;2024-03-08T02:36:56;20.40;;;8.45;;
61471;SDS011;47337;54.068;12.114;2024-03-08T02:39:21;18.45;;;8.23;;
61471;SDS011;47337;54.068;12.114;2024-03-08T02:41:49;20.45;;;8.55;;
61471;SDS011;47337;54.068;12.114;2024-03-08T02:44:14;20.65;;;8.32;;
61471;SDS011;47337;54.068;12.114;2024-03-08T02:46:40;20.88;;;8.07;;
61471;SDS011;47337;54.068;12.114;2024-03-08T02:49:05;20.85;;;8.23;;
61471;SDS011;47337;54.068;12.114;2024-03-08T02:51:33;19.77;;;8.40;;
61471;SDS011;47337;54.068;12.114;2024-03-08T02:54:00;23.08;;;8.55;;
61471;SDS011;47337;54.068;12.114;2024-03-08T02:56:25;24.13;;;9.80;;
61471;SDS011;47337;54.068;12.114;2024-03-08T02:58:51;23.88;;;8.43;;
61471;SDS011;47337;54.068;12.114;2024-03-08T03:01:16;25.98;;;9.10;;
61471;SDS011;47337;54.068;12.114;2024-03-08T03:03:42;32.75;;;9.73;;
61471;SDS011;47337;54.068;12.114;2024-03-08T03:06:07;39.45;;;9.25;;
61471;SDS011;47337;54.068;12.114;2024-03-08T03:08:35;42.40;;;9.82;;
61471;SDS011;47337;54.068;12.114;2024-03-08T03:11:00;23.13;;;7.88;;
61471;SDS011;47337;54.068;12.114;2024-03-08T03:13:26;23.98;;;8.55;;
61471;SDS011;47337;54.068;12.114;2024-03-08T03:15:54;19.08;;;8.15;;
61471;SDS011;47337;54.068;12.114;2024-03-08T03:18:19;27.27;;;8.23;;
61471;SDS011;47337;54.068;12.114;2024-03-08T03:20:48;24.50;;;8.90;;
61471;SDS011;47337;54.068;12.114;2024-03-08T03:23:14;47.08;;;9.38;;
61471;SDS011;47337;54.068;12.114;2024-03-08T03:25:39;29.88;;;9.73;;
61471;SDS011;47337;54.068;12.114;2024-03-08T03:28:06;75.78;;;11.05;;
61471;SDS011;47337;54.068;12.114;2024-03-08T03:30:35;57.78;;;10.90;;
61471;SDS011;47337;54.068;12.114;2024-03-08T03:33:01;32.88;;;10.00;;
61471;SDS011;47337;54.068;12.114;2024-03-08T03:35:30;49.63;;;10.20;;
61471;SDS011;47337;54.068;12.114;2024-03-08T03:37:55;67.00;;;11.30;;
61471;SDS011;47337;54.068;12.114;2024-03-08T03:40:39;56.42;;;9.98;;
61471;SDS011;47337;54.068;12.114;2024-03-08T03:43:05;28.88;;;8.93;;
61471;SDS011;47337;54.068;12.114;2024-03-08T03:45:30;33.22;;;8.95;;
61471;SDS011;47337;54.068;12.114;2024-03-08T03:47:59;31.88;;;10.10;;
61471;SDS011;47337;54.068;12.114;2024-03-08T03:50:25;30.15;;;9.63;;
61471;SDS011;47337;54.068;12.114;2024-03-08T03:52:50;37.67;;;10.40;;
61471;SDS011;47337;54.068;12.114;2024-03-08T03:55:16;33.80;;;9.68;;
61471;SDS011;47337;54.068;12.114;2024-03-08T03:57:41;24.13;;;8.68;;
61471;SDS011;47337;54.068;12.114;2024-03-08T04:00:10;33.35;;;9.43;;
61471;SDS011;47337;54.068;12.114;2024-03-08T04:02:37;60.35;;;11.68;;
61471;SDS011;47337;54.068;12.114;2024-03-08T04:05:03;36.60;;;10.10;;
61471;SDS011;47337;54.068;12.114;2024-03-08T04:07:28;45.00;;;12.05;;
61471;SDS011;47337;54.068;12.114;2024-03-08T04:09:53;28.92;;;10.13;;
61471;SDS011;47337;54.068;12.114;2024-03-08T04:12:19;49.22;;;11.38;;
61471;SDS011;47337;54.068;12.114;2024-03-08T04:14:44;42.40;;;11.27;;
61471;SDS011;47337;54.068;12.114;2024-03-08T04:17:09;49.60;;;11.63;;
61471;SDS011;47337;54.068;12.114;2024-03-08T04:19:38;33.22;;;10.65;;
61471;SDS011;47337;54.068;12.114;2024-03-08T04:22:06;30.85;;;10.52;;
61471;SDS011;47337;54.068;12.114;2024-03-08T04:24:32;36.30;;;12.00;;
61471;SDS011;47337;54.068;12.114;2024-03-08T04:26:57;38.90;;;10.52;;
61471;SDS011;47337;54.068;12.114;2024-03-08T04:29:25;31.38;;;11.35;;
61471;SDS011;47337;54.068;12.114;2024-03-08T04:31:55;31.73;;;11.35;;
61471;SDS011;47337;54.068;12.114;2024-03-08T04:34:23;30.42;;;10.48;;
61471;SDS011;47337;54.068;12.114;2024-03-08T04:36:49;32.80;;;11.43;;
61471;SDS011;47337;54.068;12.114;2024-03-08T04:39:14;37.80;;;11.52;;
61471;SDS011;47337;54.068;12.114;2024-03-08T04:41:40;37.22;;;12.98;;
61471;SDS011;47337;54.068;12.114;2024-03-08T04:44:05;33.10;;;12.45;;
61471;SDS011;47337;54.068;12.114;2024-03-08T04:46:33;53.70;;;13.98;;
61471;SDS011;47337;54.068;12.114;2024-03-08T04:49:00;40.17;;;13.82;;
61471;SDS011;47337;54.068;12.114;2024-03-08T04:51:25;35.42;;;13.90;;
61471;SDS011;47337;54.068;12.114;2024-03-08T04:53:53;32.50;;;12.82;;
61471;SDS011;47337;54.068;12.114;2024-03-08T04:56:18;36.30;;;12.05;;
61471;SDS011;47337;54.068;12.114;2024-03-08T04:58:46;62.22;;;13.30;;
61471;SDS011;47337;54.068;12.114;2024-03-08T05:01:12;35.92;;;12.65;;
61471;SDS011;47337;54.068;12.114;2024-03-08T05:03:37;97.15;;;15.65;;
61471;SDS011;47337;54.068;12.114;2024-03-08T05:06:03;32.83;;;12.82;;
61471;SDS011;47337;54.068;12.114;2024-03-08T05:08:28;30.58;;;12.30;;
61471;SDS011;47337;54.068;12.114;2024-03-08T05:10:54;36.08;;;11.30;;
61471;SDS011;47337;54.068;12.114;2024-03-08T05:13:21;33.65;;;12.82;;
61471;SDS011;47337;54.068;12.114;2024-03-08T05:15:48;31.27;;;11.45;;
61471;SDS011;47337;54.068;12.114;2024-03-08T05:18:15;37.63;;;13.82;;
61471;SDS011;47337;54.068;12.114;2024-03-08T05:20:40;42.90;;;13.60;;
61471;SDS011;47337;54.068;12.114;2024-03-08T05:23:06;31.50;;;12.63;;
61471;SDS011;47337;54.068;12.114;2024-03-08T05:25:31;39.35;;;13.43;;
61471;SDS011;47337;54.068;12.114;2024-03-08T05:27:57;31.88;;;12.55;;
61471;SDS011;47337;54.068;12.114;2024-03-08T05:30:23;45.63;;;12.93;;
61471;SDS011;47337;54.068;12.114;2024-03-08T05:32:48;37.80;;;12.80;;
61471;SDS011;47337;54.068;12.114;2024-03-08T05:35:13;29.17;;;12.13;;
61471;SDS011;47337;54.068;12.114;2024-03-08T05:37:41;36.33;;;11.77;;
61471;SDS011;47337;54.068;12.114;2024-03-08T05:40:09;79.88;;;15.00;;
61471;SDS011;47337;54.068;12.114;2024-03-08T05:42:35;91.57;;;15.80;;
61471;SDS011;47337;54.068;12.114;2024-03-08T05:45:01;40.47;;;12.80;;
61471;SDS011;47337;54.068;12.114;2024-03-08T05:47:27;44.28;;;12.82;;
61471;SDS011;47337;54.068;12.114;2024-03-08T05:49:52;52.05;;;13.32;;
61471;SDS011;47337;54.068;12.114;2024-03-08T05:52:18;83.15;;;14.68;;
61471;SDS011;47337;54.068;12.114;2024-03-08T05:54:43;42.75;;;12.95;;
61471;SDS011;47337;54.068;12.114;2024-03-08T05:57:10;57.75;;;14.45;;
61471;SDS011;47337;54.068;12.114;2024-03-08T05:59:36;47.55;;;13.88;;
61471;SDS011;47337;54.068;12.114;2024-03-08T06:02:01;35.05;;;14.07;;
61471;SDS011;47337;54.068;12.114;2024-03-08T06:04:28;46.47;;;14.13;;
61471;SDS011;47337;54.068;12.114;2024-03-08T06:06:54;35.28;;;13.23;;
61471;SDS011;47337;54.068;12.114;2024-03-08T06:09:23;43.80;;;13.30;;
61471;SDS011;47337;54.068;12.114;2024-03-08T06:11:49;39.00;;;14.25;;
61471;SDS011;47337;54.068;12.114;2024-03-08T06:14:14;38.33;;;12.75;;
61471;SDS011;47337;54.068;12.114;2024-03-08T06:16:43;41.75;;;13.93;;
61471;SDS011;47337;54.068;12.114;2024-03-08T06:19:09;38.47;;;12.73;;
61471;SDS011;47337;54.068;12.114;2024-03-08T06:21:34;44.35;;;13.75;;
61471;SDS011;47337;54.068;12.114;2024-03-08T06:23:59;35.47;;;12.27;;
61471;SDS011;47337;54.068;12.114;2024-03-08T06:26:24;37.92;;;13.05;;
61471;SDS011;47337;54.068;12.114;2024-03-08T06:28:50;36.03;;;14.48;;
61471;SDS011;47337;54.068;12.114;2024-03-08T06:31:16;37.85;;;13.98;;
61471;SDS011;47337;54.068;12.114;2024-03-08T06:33:41;51.38;;;14.98;;
61471;SDS011;47337;54.068;12.114;2024-03-08T06:36:09;56.03;;;15.00;;
61471;SDS011;47337;54.068;12.114;2024-03-08T06:38:36;28.52;;;12.18;;
61471;SDS011;47337;54.068;12.114;2024-03-08T06:41:07;35.63;;;13.05;;
61471;SDS011;47337;54.068;12.114;2024-03-08T06:43:32;60.22;;;15.93;;
61471;SDS011;47337;54.068;12.114;2024-03-08T06:45:59;62.80;;;14.45;;
61471;SDS011;47337;54.068;12.114;2024-03-08T06:48:28;68.80;;;15.32;;
61471;SDS011;47337;54.068;12.114;2024-03-08T06:50:54;57.13;;;14.43;;
61471;SDS011;47337;54.068;12.114;2024-03-08T06:53:21;60.25;;;17.67;;
61471;SDS011;47337;54.068;12.114;2024-03-08T06:55:49;39.75;;;13.73;;
61471;SDS011;47337;54.068;12.114;2024-03-08T06:58:15;38.30;;;13.13;;
61471;SDS011;47337;54.068;12.114;2024-03-08T07:00:43;43.13;;;13.52;;
61471;SDS011;47337;54.068;12.114;2024-03-08T07:03:09;42.60;;;15.52;;
61471;SDS011;47337;54.068;12.114;2024-03-08T07:05:37;39.65;;;14.55;;
61471;SDS011;47337;54.068;12.114;2024-03-08T07:08:03;34.75;;;13.23;;
61471;SDS011;47337;54.068;12.114;2024-03-08T07:10:28;42.85;;;14.10;;
61471;SDS011;47337;54.068;12.114;2024-03-08T07:12:54;70.95;;;16.63;;
61471;SDS011;47337;54.068;12.114;2024-03-08T07:15:19;33.75;;;13.63;;
61471;SDS011;47337;54.068;12.114;2024-03-08T07:17:48;43.47;;;15.07;;
61471;SDS011;47337;54.068;12.114;2024-03-08T07:20:13;32.00;;;12.75;;
61471;SDS011;47337;54.068;12.114;2024-03-08T07:22:40;58.08;;;14.25;;
61471;SDS011;47337;54.068;12.114;2024-03-08T07:25:06;45.88;;;13.88;;
61471;SDS011;47337;54.068;12.114;2024-03-08T07:27:43;51.08;;;16.08;;
61471;SDS011;47337;54.068;12.114;2024-03-08T07:30:09;82.60;;;17.88;;
61471;SDS011;47337;54.068;12.114;2024-03-08T07:32:37;65.97;;;15.55;;
61471;SDS011;47337;54.068;12.114;2024-03-08T07:35:05;50.75;;;14.93;;
61471;SDS011;47337;54.068;12.114;2024-03-08T07:37:31;54.78;;;16.42;;
61471;SDS011;47337;54.068;12.114;2024-03-08T07:39:56;45.78;;;15.68;;
61471;SDS011;47337;54.068;12.114;2024-03-08T07:42:23;48.20;;;13.73;;
61471;SDS011;47337;54.068;12.114;2024-03-08T07:44:49;40.63;;;14.55;;
61471;SDS011;47337;54.068;12.114;2024-03-08T07:47:15;45.55;;;15.63;;
61471;SDS011;47337;54.068;12.114;2024-03-08T07:49:42;45.30;;;15.63;;
61471;SDS011;47337;54.068;12.114;2024-03-08T07:52:08;47.35;;;14.90;;
61471;SDS011;47337;54.068;12.114;2024-03-08T07:54:33;43.17;;;16.08;;
61471;SDS011;47337;54.068;12.114;2024-03-08T07:57:01;39.33;;;15.63;;
61471;SDS011;47337;54.068;12.114;2024-03-08T07:59:28;39.58;;;14.50;;
61471;SDS011;47337;54.068;12.114;2024-03-08T08:01:53;39.13;;;15.20;;
61471;SDS011;47337;54.068;12.114;2024-03-08T08:04:21;37.58;;;13.98;;
61471;SDS011;47337;54.068;12.114;2024-03-08T08:06:49;41.15;;;15.18;;
61471;SDS011;47337;54.068;12.114;2024-03-08T08:09:18;36.90;;;15.35;;
61471;SDS011;47337;54.068;12.114;2024-03-08T08:11:53;41.08;;;15.60;;
61471;SDS011;47337;54.068;12.114;2024-03-08T08:14:21;46.28;;;15.65;;
61471;SDS011;47337;54.068;12.114;2024-03-08T08:16:50;37.65;;;14.57;;
61471;SDS011;47337;54.068;12.114;2024-03-08T08:19:17;39.53;;;14.18;;
61471;SDS011;47337;54.068;12.114;2024-03-08T08:21:43;43.00;;;15.77;;
61471;SDS011;47337;54.068;12.114;2024-03-08T08:24:08;38.38;;;14.32;;
61471;SDS011;47337;54.068;12.114;2024-03-08T08:26:33;36.78;;;14.93;;
61471;SDS011;47337;54.068;12.114;2024-03-08T08:29:01;53.53;;;16.63;;
61471;SDS011;47337;54.068;12.114;2024-03-08T08:31:26;38.63;;;14.88;;
61471;SDS011;47337;54.068;12.114;2024-03-08T08:33:52;37.80;;;15.55;;
61471;SDS011;47337;54.068;12.114;2024-03-08T08:36:25;44.83;;;15.40;;
61471;SDS011;47337;54.068;12.114;2024-03-08T08:38:51;41.65;;;14.65;;
61471;SDS011;47337;54.068;12.114;2024-03-08T08:41:19;36.20;;;14.63;;
61471;SDS011;47337;54.068;12.114;2024-03-08T08:43:44;39.45;;;15.38;;
61471;SDS011;47337;54.068;12.114;2024-03-08T08:46:10;35.63;;;14.77;;
61471;SDS011;47337;54.068;12.114;2024-03-08T08:48:41;34.20;;;14.50;;
61471;SDS011;47337;54.068;12.114;2024-03-08T08:51:06;41.00;;;15.75;;
61471;SDS011;47337;54.068;12.114;2024-03-08T08:53:32;36.28;;;14.70;;
61471;SDS011;47337;54.068;12.114;2024-03-08T08:55:57;39.15;;;16.77;;
61471;SDS011;47337;54.068;12.114;2024-03-08T08:58:22;41.72;;;16.52;;
61471;SDS011;47337;54.068;12.114;2024-03-08T09:00:48;35.72;;;14.45;;
61471;SDS011;47337;54.068;12.114;2024-03-08T09:03:15;34.35;;;15.05;;
61471;SDS011;47337;54.068;12.114;2024-03-08T09:05:42;42.53;;;16.90;;
61471;SDS011;47337;54.068;12.114;2024-03-08T09:08:07;38.13;;;15.50;;
61471;SDS011;47337;54.068;12.114;2024-03-08T09:10:33;34.70;;;14.55;;
61471;SDS011;47337;54.068;12.114;2024-03-08T09:12:59;36.50;;;15.18;;
61471;SDS011;47337;54.068;12.114;2024-03-08T09:15:24;32.92;;;14.80;;
61471;SDS011;47337;54.068;12.114;2024-03-08T09:17:56;36.47;;;15.55;;
61471;SDS011;47337;54.068;12.114;2024-03-08T09:20:24;36.90;;;14.95;;
61471;SDS011;47337;54.068;12.114;2024-03-08T09:22:50;33.85;;;14.35;;
61471;SDS011;47337;54.068;12.114;2024-03-08T09:25:15;34.40;;;15.45;;
61471;SDS011;47337;54.068;12.114;2024-03-08T09:27:41;40.58;;;16.15;;
61471;SDS011;47337;54.068;12.114;2024-03-08T09:30:06;32.65;;;15.02;;
61471;SDS011;47337;54.068;12.114;2024-03-08T09:32:32;33.75;;;14.77;;
61471;SDS011;47337;54.068;12.114;2024-03-08T09:34:57;33.10;;;13.70;;
61471;SDS011;47337;54.068;12.114;2024-03-08T09:37:22;34.92;;;15.60;;
61471;SDS011;47337;54.068;12.114;2024-03-08T09:39:48;35.63;;;15.45;;
61471;SDS011;47337;54.068;12.114;2024-03-08T09:42:13;33.58;;;15.43;;
61471;SDS011;47337;54.068;12.114;2024-03-08T09:44:46;34.22;;;15.65;;
61471;SDS011;47337;54.068;12.114;2024-03-08T09:47:13;39.65;;;16.38;;
61471;SDS011;47337;54.068;12.114;2024-03-08T09:49:41;35.55;;;14.35;;
61471;SDS011;47337;54.068;12.114;2024-03-08T09:52:08;37.38;;;15.55;;
61471;SDS011;47337;54.068;12.114;2024-03-08T09:54:35;40.20;;;16.85;;
61471;SDS011;47337;54.068;12.114;2024-03-08T09:57:02;38.25;;;16.70;;
61471;SDS011;47337;54.068;12.114;2024-03-08T09:59:29;37.33;;;16.48;;
61471;SDS011;47337;54.068;12.114;2024-03-08T10:02:03;38.88;;;17.95;;
61471;SDS011;47337;54.068;12.114;2024-03-08T10:04:29;43.50;;;16.08;;
61471;SDS011;47337;54.068;12.114;2024-03-08T10:06:58;37.22;;;16.70;;
61471;SDS011;47337;54.068;12.114;2024-03-08T10:09:24;40.53;;;17.25;;
61471;SDS011;47337;54.068;12.114;2024-03-08T10:11:53;36.65;;;16.17;;
61471;SDS011;47337;54.068;12.114;2024-03-08T10:14:18;43.75;;;17.75;;
61471;SDS011;47337;54.068;12.114;2024-03-08T10:16:46;41.58;;;17.98;;
61471;SDS011;47337;54.068;12.114;2024-03-08T10:19:11;39.35;;;17.10;;
61471;SDS011;47337;54.068;12.114;2024-03-08T10:21:47;41.55;;;18.02;;
61471;SDS011;47337;54.068;12.114;2024-03-08T10:24:12;42.22;;;17.88;;
61471;SDS011;47337;54.068;12.114;2024-03-08T10:26:38;39.97;;;17.27;;
61471;SDS011;47337;54.068;12.114;2024-03-08T10:29:04;43.08;;;16.75;;
61471;SDS011;47337;54.068;12.114;2024-03-08T10:31:32;39.13;;;17.13;;
61471;SDS011;47337;54.068;12.114;2024-03-08T10:33:58;40.45;;;18.10;;
61471;SDS011;47337;54.068;12.114;2024-03-08T10:36:23;34.17;;;16.20;;
61471;SDS011;47337;54.068;12.114;2024-03-08T10:38:51;40.88;;;18.13;;
61471;SDS011;47337;54.068;12.114;2024-03-08T10:41:19;40.03;;;16.85;;
61471;SDS011;47337;54.068;12.114;2024-03-08T10:48:37;39.25;;;17.38;;
61471;SDS011;47337;54.068;12.114;2024-03-08T10:51:06;43.40;;;17.17;;
61471;SDS011;47337;54.068;12.114;2024-03-08T10:53:36;42.97;;;18.40;;
61471;SDS011;47337;54.068;12.114;2024-03-08T10:56:02;45.40;;;19.00;;
61471;SDS011;47337;54.068;12.114;2024-03-08T10:58:27;50.40;;;19.90;;
61471;SDS011;47337;54.068;12.114;2024-03-08T11:00:53;40.97;;;17.20;;
61471;SDS011;47337;54.068;12.114;2024-03-08T11:04:01;39.95;;;17.15;;
61471;SDS011;47337;54.068;12.114;2024-03-08T11:06:13;39.63;;;17.60;;
61471;SDS011;47337;54.068;12.114;2024-03-08T11:08:40;40.85;;;17.15;;
61471;SDS011;47337;54.068;12.114;2024-03-08T11:11:05;35.17;;;16.13;;
61471;SDS011;47337;54.068;12.114;2024-03-08T11:13:37;35.05;;;15.40;;
61471;SDS011;47337;54.068;12.114;2024-03-08T11:16:13;33.95;;;15.55;;
61471;SDS011;47337;54.068;12.114;2024-03-08T11:18:51;32.72;;;16.13;;
61471;SDS011;47337;54.068;12.114;2024-03-08T11:21:18;36.05;;;15.52;;
61471;SDS011;47337;54.068;12.114;2024-03-08T11:23:43;34.78;;;16.95;;
61471;SDS011;47337;54.068;12.114;2024-03-08T11:26:23;35.65;;;17.08;;
61471;SDS011;47337;54.068;12.114;2024-03-08T11:28:49;36.67;;;16.15;;
61471;SDS011;47337;54.068;12.114;2024-03-08T11:33:46;30.58;;;14.85;;
61471;SDS011;47337;54.068;12.114;2024-03-08T11:36:14;32.67;;;15.88;;
61471;SDS011;47337;54.068;12.114;2024-03-08T11:41:17;31.10;;;14.27;;
61471;SDS011;47337;54.068;12.114;2024-03-08T11:43:43;29.88;;;14.07;;
61471;SDS011;47337;54.068;12.114;2024-03-08T11:46:09;32.95;;;15.05;;
61471;SDS011;47337;54.068;12.114;2024-03-08T11:48:34;28.77;;;15.65;;
61471;SDS011;47337;54.068;12.114;2024-03-08T11:51:03;31.33;;;14.13;;
61471;SDS011;47337;54.068;12.114;2024-03-08T11:53:31;29.40;;;14.25;;
61471;SDS011;47337;54.068;12.114;2024-03-08T11:56:09;27.42;;;13.60;;
61471;SDS011;47337;54.068;12.114;2024-03-08T11:58:36;28.55;;;13.38;;
61471;SDS011;47337;54.068;12.114;2024-03-08T12:01:05;25.40;;;13.00;;
61471;SDS011;47337;54.068;12.114;2024-03-08T12:03:33;25.63;;;13.48;;
61471;SDS011;47337;54.068;12.114;2024-03-08T12:06:05;23.73;;;11.65;;
61471;SDS011;47337;54.068;12.114;2024-03-08T12:08:31;24.63;;;12.52;;
61471;SDS011;47337;54.068;12.114;2024-03-08T12:10:57;25.83;;;12.77;;
61471;SDS011;47337;54.068;12.114;2024-03-08T12:13:28;23.70;;;12.35;;
61471;SDS011;47337;54.068;12.114;2024-03-08T12:15:57;18.63;;;10.95;;
61471;SDS011;47337;54.068;12.114;2024-03-08T12:18:26;23.77;;;10.70;;
61471;SDS011;47337;54.068;12.114;2024-03-08T12:21:09;25.17;;;11.65;;
61471;SDS011;47337;54.068;12.114;2024-03-08T12:23:39;26.17;;;13.30;;
61471;SDS011;47337;54.068;12.114;2024-03-08T12:26:25;25.55;;;12.63;;
61471;SDS011;47337;54.068;12.114;2024-03-08T12:28:52;21.85;;;12.30;;
61471;SDS011;47337;54.068;12.114;2024-03-08T12:31:17;22.48;;;10.73;;
61471;SDS011;47337;54.068;12.114;2024-03-08T12:33:49;22.38;;;10.82;;
61471;SDS011;47337;54.068;12.114;2024-03-08T12:36:15;19.60;;;10.18;;
61471;SDS011;47337;54.068;12.114;2024-03-08T12:38:43;23.35;;;10.68;;
61471;SDS011;47337;54.068;12.114;2024-03-08T12:41:08;20.02;;;9.88;;
61471;SDS011;47337;54.068;12.114;2024-03-08T12:43:36;19.65;;;10.60;;
61471;SDS011;47337;54.068;12.114;2024-03-08T12:46:01;21.08;;;10.45;;
61471;SDS011;47337;54.068;12.114;2024-03-08T12:48:26;19.23;;;10.02;;
61471;SDS011;47337;54.068;12.114;2024-03-08T12:50:54;17.10;;;9.27;;
61471;SDS011;47337;54.068;12.114;2024-03-08T12:53:19;20.70;;;10.65;;
61471;SDS011;47337;54.068;12.114;2024-03-08T12:55:45;20.58;;;11.18;;
61471;SDS011;47337;54.068;12.114;2024-03-08T12:58:10;18.52;;;10.05;;
61471;SDS011;47337;54.068;12.114;2024-03-08T13:00:38;20.15;;;10.50;;
61471;SDS011;47337;54.068;12.114;2024-03-08T13:03:07;23.15;;;11.10;;
61471;SDS011;47337;54.068;12.114;2024-03-08T13:05:35;19.05;;;10.45;;
61471;SDS011;47337;54.068;12.114;2024-03-08T13:08:04;23.80;;;10.70;;
61471;SDS011;47337;54.068;12.114;2024-03-08T13:10:37;18.73;;;9.20;;
61471;SDS011;47337;54.068;12.114;2024-03-08T13:13:02;22.58;;;11.60;;
61471;SDS011;47337;54.068;12.114;2024-03-08T13:15:28;18.67;;;9.52;;
61471;SDS011;47337;54.068;12.114;2024-03-08T13:17:54;21.10;;;11.00;;
61471;SDS011;47337;54.068;12.114;2024-03-08T13:20:22;20.27;;;10.98;;
61471;SDS011;47337;54.068;12.114;2024-03-08T13:22:48;20.48;;;10.45;;
61471;SDS011;47337;54.068;12.114;2024-03-08T13:25:13;22.08;;;10.18;;
61471;SDS011;47337;54.068;12.114;2024-03-08T13:27:41;20.02;;;9.77;;
61471;SDS011;47337;54.068;12.114;2024-03-08T13:30:07;17.20;;;9.75;;
61471;SDS011;47337;54.068;12.114;2024-03-08T13:32:40;20.33;;;10.27;;
61471;SDS011;47337;54.068;12.114;2024-03-08T13:35:08;20.98;;;10.70;;
61471;SDS011;47337;54.068;12.114;2024-03-08T13:37:42;19.67;;;10.52;;
61471;SDS011;47337;54.068;12.114;2024-03-08T13:40:09;24.55;;;10.88;;
61471;SDS011;47337;54.068;12.114;2024-03-08T13:42:40;23.65;;;11.15;;
61471;SDS011;47337;54.068;12.114;2024-03-08T13:45:07;37.75;;;15.52;;
61471;SDS011;47337;54.068;12.114;2024-03-08T13:47:34;83.47;;;30.60;;
61471;SDS011;47337;54.068;12.114;2024-03-08T13:49:59;95.20;;;35.67;;
61471;SDS011;47337;54.068;12.114;2024-03-08T13:52:25;32.70;;;15.15;;
61471;SDS011;47337;54.068;12.114;2024-03-08T13:54:54;23.77;;;11.27;;
61471;SDS011;47337;54.068;12.114;2024-03-08T13:57:19;20.60;;;10.95;;
61471;SDS011;47337;54.068;12.114;2024-03-08T13:59:44;20.40;;;10.35;;
61471;SDS011;47337;54.068;12.114;2024-03-08T14:02:10;21.10;;;10.75;;
61471;SDS011;47337;54.068;12.114;2024-03-08T14:04:38;21.42;;;10.57;;
61471;SDS011;47337;54.068;12.114;2024-03-08T14:07:04;21.42;;;10.40;;
61471;SDS011;47337;54.068;12.114;2024-03-08T14:09:33;24.50;;;10.95;;
61471;SDS011;47337;54.068;12.114;2024-03-08T14:12:02;21.65;;;10.60;;
61471;SDS011;47337;54.068;12.114;2024-03-08T14:14:28;19.48;;;10.90;;
61471;SDS011;47337;54.068;12.114;2024-03-08T14:16:54;22.77;;;11.98;;
61471;SDS011;47337;54.068;12.114;2024-03-08T14:19:23;24.60;;;10.95;;
61471;SDS011;47337;54.068;12.114;2024-03-08T14:21:48;20.58;;;11.30;;
61471;SDS011;47337;54.068;12.114;2024-03-08T14:24:16;22.50;;;10.75;;